sensor_id;sensor_type;location;lat;lon;timestamp;temperature;humidity
22185;DHT22;11258;52.516;13.318;2023-03-01T00:01:26;1.90;99.90
22185;DHT22;11258;52.516;13.318;2023-03-01T00:03:53;1.90;99.90
22185;DHT22;11258;52.516;13.318;2023-03-01T00:06:20;1.80;99.90
22185;DHT22;11258;52.516;13.318;2023-03-01T00:08:46;1.80;99.90
22185;DHT22;11258;52.516;13.318;2023-03-01T00:13:46;1.80;99.90
22185;DHT22;11258;52.516;13.318;2023-03-01T00:16:15;1.70;99.90
22185;DHT22;11258;52.516;13.318;2023-03-01T00:18:40;1.80;99.90
22185;DHT22;11258;52.516;13.318;2023-03-01T00:21:06;1.80;99.90
22185;DHT22;11258;52.516;13.318;2023-03-01T00:23:34;1.80;99.90
22185;DHT22;11258;52.516;13.318;2023-03-01T00:25:59;1.70;99.90
22185;DHT22;11258;52.516;13.318;2023-03-01T00:28:25;1.70;99.90
22185;DHT22;11258;52.516;13.318;2023-03-01T00:30:51;1.70;99.90
22185;DHT22;11258;52.516;13.318;2023-03-01T00:33:16;1.70;99.90
22185;DHT22;11258;52.516;13.318;2023-03-01T00:35:42;1.70;99.90
22185;DHT22;11258;52.516;13.318;2023-03-01T00:38:08;1.70;99.90
22185;DHT22;11258;52.516;13.318;2023-03-01T00:40:35;1.70;99.90
22185;DHT22;11258;52.516;13.318;2023-03-01T00:43:01;1.60;99.90
22185;DHT22;11258;52.516;13.318;2023-03-01T00:45:27;1.60;99.90
22185;DHT22;11258;52.516;13.318;2023-03-01T00:47:53;1.60;99.90
22185;DHT22;11258;52.516;13.318;2023-03-01T00:50:19;1.60;99.90
22185;DHT22;11258;52.516;13.318;2023-03-01T00:52:45;1.60;99.90
22185;DHT22;11258;52.516;13.318;2023-03-01T00:55:11;1.60;99.90
22185;DHT22;11258;52.516;13.318;2023-03-01T00:57:38;1.60;99.90
22185;DHT22;11258;52.516;13.318;2023-03-01T01:00:07;1.60;99.90
22185;DHT22;11258;52.516;13.318;2023-03-01T01:02:35;1.50;99.90
22185;DHT22;11258;52.516;13.318;2023-03-01T01:05:00;1.50;99.90
22185;DHT22;11258;52.516;13.318;2023-03-01T01:07:26;1.40;99.90
22185;DHT22;11258;52.516;13.318;2023-03-01T01:09:52;1.40;99.90
22185;DHT22;11258;52.516;13.318;2023-03-01T01:12:17;1.40;99.90
22185;DHT22;11258;52.516;13.318;2023-03-01T01:14:43;1.40;99.90
22185;DHT22;11258;52.516;13.318;2023-03-01T01:17:09;1.30;99.90
22185;DHT22;11258;52.516;13.318;2023-03-01T01:19:34;1.20;99.90
22185;DHT22;11258;52.516;13.318;2023-03-01T01:22:00;1.20;99.90
22185;DHT22;11258;52.516;13.318;2023-03-01T01:24:26;1.20;99.90
22185;DHT22;11258;52.516;13.318;2023-03-01T01:26:51;1.20;99.90
22185;DHT22;11258;52.516;13.318;2023-03-01T01:29:17;1.20;99.90
22185;DHT22;11258;52.516;13.318;2023-03-01T01:31:43;1.10;99.90
22185;DHT22;11258;52.516;13.318;2023-03-01T01:34:16;1.10;99.90
22185;DHT22;11258;52.516;13.318;2023-03-01T01:36:42;1.10;99.90
22185;DHT22;11258;52.516;13.318;2023-03-01T01:39:08;1.10;99.90
22185;DHT22;11258;52.516;13.318;2023-03-01T01:41:39;1.10;99.90
22185;DHT22;11258;52.516;13.318;2023-03-01T01:44:26;1.10;99.90
22185;DHT22;11258;52.516;13.318;2023-03-01T01:49:36;1.10;99.90
22185;DHT22;11258;52.516;13.318;2023-03-01T01:52:10;1.00;99.90
22185;DHT22;11258;52.516;13.318;2023-03-01T01:54:50;1.00;99.90
22185;DHT22;11258;52.516;13.318;2023-03-01T01:57:23;0.90;99.90
22185;DHT22;11258;52.516;13.318;2023-03-01T01:59:56;0.90;99.90
22185;DHT22;11258;52.516;13.318;2023-03-01T02:02:23;0.90;99.90
22185;DHT22;11258;52.516;13.318;2023-03-01T02:04:53;0.90;99.90
22185;DHT22;11258;52.516;13.318;2023-03-01T02:07:22;0.90;99.90
22185;DHT22;11258;52.516;13.318;2023-03-01T02:09:51;0.90;99.90
22185;DHT22;11258;52.516;13.318;2023-03-01T02:12:20;0.90;99.90
22185;DHT22;11258;52.516;13.318;2023-03-01T02:14:47;0.90;99.90
22185;DHT22;11258;52.516;13.318;2023-03-01T02:17:15;0.90;99.90
22185;DHT22;11258;52.516;13.318;2023-03-01T02:22:45;0.90;99.90
22185;DHT22;11258;52.516;13.318;2023-03-01T02:30:42;0.90;99.90
22185;DHT22;11258;52.516;13.318;2023-03-01T02:33:30;1.00;99.90
22185;DHT22;11258;52.516;13.318;2023-03-01T02:36:06;1.00;99.90
22185;DHT22;11258;52.516;13.318;2023-03-01T02:38:33;1.00;99.90
22185;DHT22;11258;52.516;13.318;2023-03-01T02:41:00;0.90;99.90
22185;DHT22;11258;52.516;13.318;2023-03-01T02:43:31;0.90;99.90
22185;DHT22;11258;52.516;13.318;2023-03-01T02:46:07;0.90;99.90
22185;DHT22;11258;52.516;13.318;2023-03-01T02:48:48;0.90;99.90
22185;DHT22;11258;52.516;13.318;2023-03-01T02:51:25;0.90;99.90
22185;DHT22;11258;52.516;13.318;2023-03-01T02:56:45;0.90;99.90
22185;DHT22;11258;52.516;13.318;2023-03-01T02:59:19;0.90;99.90
22185;DHT22;11258;52.516;13.318;2023-03-01T03:01:45;0.90;99.90
22185;DHT22;11258;52.516;13.318;2023-03-01T03:04:14;0.80;99.90
22185;DHT22;11258;52.516;13.318;2023-03-01T03:06:43;0.80;99.90
22185;DHT22;11258;52.516;13.318;2023-03-01T03:09:10;0.80;99.90
22185;DHT22;11258;52.516;13.318;2023-03-01T03:11:36;0.80;99.90
22185;DHT22;11258;52.516;13.318;2023-03-01T03:14:02;0.80;99.90
22185;DHT22;11258;52.516;13.318;2023-03-01T03:16:28;0.80;99.90
22185;DHT22;11258;52.516;13.318;2023-03-01T03:18:55;0.80;99.90
22185;DHT22;11258;52.516;13.318;2023-03-01T03:21:32;0.80;99.90
22185;DHT22;11258;52.516;13.318;2023-03-01T03:23:59;0.80;99.90
22185;DHT22;11258;52.516;13.318;2023-03-01T03:26:25;0.80;99.90
22185;DHT22;11258;52.516;13.318;2023-03-01T03:28:50;0.80;99.90
22185;DHT22;11258;52.516;13.318;2023-03-01T03:31:16;0.80;99.90
22185;DHT22;11258;52.516;13.318;2023-03-01T03:33:42;0.80;99.90
22185;DHT22;11258;52.516;13.318;2023-03-01T03:36:08;0.80;99.90
22185;DHT22;11258;52.516;13.318;2023-03-01T03:38:38;0.80;99.90
22185;DHT22;11258;52.516;13.318;2023-03-01T03:41:06;0.80;99.90
22185;DHT22;11258;52.516;13.318;2023-03-01T03:43:35;0.70;99.90
22185;DHT22;11258;52.516;13.318;2023-03-01T03:46:01;0.70;99.90
22185;DHT22;11258;52.516;13.318;2023-03-01T03:48:41;0.70;99.90
22185;DHT22;11258;52.516;13.318;2023-03-01T03:51:11;0.70;99.90
22185;DHT22;11258;52.516;13.318;2023-03-01T03:53:36;0.70;99.90
22185;DHT22;11258;52.516;13.318;2023-03-01T03:56:02;0.70;99.90
22185;DHT22;11258;52.516;13.318;2023-03-01T03:58:28;0.70;99.90
22185;DHT22;11258;52.516;13.318;2023-03-01T04:00:56;0.70;99.90
22185;DHT22;11258;52.516;13.318;2023-03-01T04:03:23;0.70;99.90
22185;DHT22;11258;52.516;13.318;2023-03-01T04:05:49;0.60;99.90
22185;DHT22;11258;52.516;13.318;2023-03-01T04:08:19;0.70;99.90
22185;DHT22;11258;52.516;13.318;2023-03-01T04:10:49;0.70;99.90
22185;DHT22;11258;52.516;13.318;2023-03-01T04:13:17;0.70;99.90
22185;DHT22;11258;52.516;13.318;2023-03-01T04:15:45;0.60;99.90
22185;DHT22;11258;52.516;13.318;2023-03-01T04:18:15;0.60;99.90
22185;DHT22;11258;52.516;13.318;2023-03-01T04:20:42;0.60;99.90
22185;DHT22;11258;52.516;13.318;2023-03-01T04:23:14;0.60;99.90
22185;DHT22;11258;52.516;13.318;2023-03-01T04:25:51;0.60;99.90
22185;DHT22;11258;52.516;13.318;2023-03-01T04:28:41;0.60;99.90
22185;DHT22;11258;52.516;13.318;2023-03-01T04:31:12;0.60;99.90
22185;DHT22;11258;52.516;13.318;2023-03-01T04:33:46;0.60;99.90
22185;DHT22;11258;52.516;13.318;2023-03-01T04:36:13;0.60;99.90
22185;DHT22;11258;52.516;13.318;2023-03-01T04:38:40;0.50;99.90
22185;DHT22;11258;52.516;13.318;2023-03-01T04:41:08;0.50;99.90
22185;DHT22;11258;52.516;13.318;2023-03-01T04:43:34;0.50;99.90
22185;DHT22;11258;52.516;13.318;2023-03-01T04:46:01;0.40;99.90
22185;DHT22;11258;52.516;13.318;2023-03-01T04:48:29;0.40;99.90
22185;DHT22;11258;52.516;13.318;2023-03-01T04:50:54;0.40;99.90
22185;DHT22;11258;52.516;13.318;2023-03-01T04:53:20;0.40;99.90
22185;DHT22;11258;52.516;13.318;2023-03-01T04:55:45;0.40;99.90
22185;DHT22;11258;52.516;13.318;2023-03-01T04:58:11;0.30;99.90
22185;DHT22;11258;52.516;13.318;2023-03-01T05:00:37;0.40;99.90
22185;DHT22;11258;52.516;13.318;2023-03-01T05:03:02;0.30;99.90
22185;DHT22;11258;52.516;13.318;2023-03-01T05:05:34;0.30;99.90
22185;DHT22;11258;52.516;13.318;2023-03-01T05:08:05;0.30;99.90
22185;DHT22;11258;52.516;13.318;2023-03-01T05:10:33;0.30;99.90
22185;DHT22;11258;52.516;13.318;2023-03-01T05:13:00;0.30;99.90
22185;DHT22;11258;52.516;13.318;2023-03-01T05:15:29;0.20;99.90
22185;DHT22;11258;52.516;13.318;2023-03-01T05:17:56;0.30;99.90
22185;DHT22;11258;52.516;13.318;2023-03-01T05:20:25;0.30;99.90
22185;DHT22;11258;52.516;13.318;2023-03-01T05:22:52;0.30;99.90
22185;DHT22;11258;52.516;13.318;2023-03-01T05:25:20;0.30;99.90
22185;DHT22;11258;52.516;13.318;2023-03-01T05:27:47;0.30;99.90
22185;DHT22;11258;52.516;13.318;2023-03-01T05:30:13;0.20;99.90
22185;DHT22;11258;52.516;13.318;2023-03-01T05:32:46;0.20;99.90
22185;DHT22;11258;52.516;13.318;2023-03-01T05:35:14;0.10;99.90
22185;DHT22;11258;52.516;13.318;2023-03-01T05:37:44;0.10;99.90
22185;DHT22;11258;52.516;13.318;2023-03-01T05:40:18;0.10;99.90
22185;DHT22;11258;52.516;13.318;2023-03-01T05:42:55;0.10;99.90
22185;DHT22;11258;52.516;13.318;2023-03-01T05:45:23;0.00;99.90
22185;DHT22;11258;52.516;13.318;2023-03-01T05:47:49;0.10;99.90
22185;DHT22;11258;52.516;13.318;2023-03-01T05:50:26;0.10;99.90
22185;DHT22;11258;52.516;13.318;2023-03-01T05:53:00;0.20;99.90
22185;DHT22;11258;52.516;13.318;2023-03-01T05:55:26;0.20;99.90
22185;DHT22;11258;52.516;13.318;2023-03-01T05:57:52;0.20;99.90
22185;DHT22;11258;52.516;13.318;2023-03-01T06:00:20;0.20;99.90
22185;DHT22;11258;52.516;13.318;2023-03-01T06:02:47;0.30;99.90
22185;DHT22;11258;52.516;13.318;2023-03-01T06:05:14;0.30;99.90
22185;DHT22;11258;52.516;13.318;2023-03-01T06:07:39;0.30;99.90
22185;DHT22;11258;52.516;13.318;2023-03-01T06:10:06;0.30;99.90
22185;DHT22;11258;52.516;13.318;2023-03-01T06:12:33;0.30;99.90
22185;DHT22;11258;52.516;13.318;2023-03-01T06:15:00;0.40;99.90
22185;DHT22;11258;52.516;13.318;2023-03-01T06:17:29;0.60;99.90
22185;DHT22;11258;52.516;13.318;2023-03-01T06:19:55;0.70;99.90
22185;DHT22;11258;52.516;13.318;2023-03-01T06:22:21;0.90;99.90
22185;DHT22;11258;52.516;13.318;2023-03-01T06:24:46;1.30;99.90
22185;DHT22;11258;52.516;13.318;2023-03-01T06:27:12;1.90;99.90
22185;DHT22;11258;52.516;13.318;2023-03-01T06:29:37;2.60;99.90
22185;DHT22;11258;52.516;13.318;2023-03-01T06:32:03;3.30;99.90
22185;DHT22;11258;52.516;13.318;2023-03-01T06:34:30;4.10;99.90
22185;DHT22;11258;52.516;13.318;2023-03-01T06:36:56;4.50;99.90
22185;DHT22;11258;52.516;13.318;2023-03-01T06:39:21;4.80;99.90
22185;DHT22;11258;52.516;13.318;2023-03-01T06:41:47;5.00;99.90
22185;DHT22;11258;52.516;13.318;2023-03-01T06:44:13;4.80;99.90
22185;DHT22;11258;52.516;13.318;2023-03-01T06:46:39;5.10;99.90
22185;DHT22;11258;52.516;13.318;2023-03-01T06:49:05;5.30;99.90
22185;DHT22;11258;52.516;13.318;2023-03-01T06:51:35;5.50;99.90
22185;DHT22;11258;52.516;13.318;2023-03-01T06:54:01;5.90;99.90
22185;DHT22;11258;52.516;13.318;2023-03-01T06:56:26;6.40;99.90
22185;DHT22;11258;52.516;13.318;2023-03-01T06:58:52;6.70;99.90
22185;DHT22;11258;52.516;13.318;2023-03-01T07:01:17;7.10;99.90
22185;DHT22;11258;52.516;13.318;2023-03-01T07:03:43;7.60;99.90
22185;DHT22;11258;52.516;13.318;2023-03-01T07:06:09;8.10;99.90
22185;DHT22;11258;52.516;13.318;2023-03-01T07:08:35;8.70;99.90
22185;DHT22;11258;52.516;13.318;2023-03-01T07:11:01;9.40;99.90
22185;DHT22;11258;52.516;13.318;2023-03-01T07:13:28;10.10;99.90
22185;DHT22;11258;52.516;13.318;2023-03-01T07:15:54;10.80;99.90
22185;DHT22;11258;52.516;13.318;2023-03-01T07:18:20;11.50;99.90
22185;DHT22;11258;52.516;13.318;2023-03-01T07:20:45;11.90;99.90
22185;DHT22;11258;52.516;13.318;2023-03-01T07:23:11;12.00;99.90
22185;DHT22;11258;52.516;13.318;2023-03-01T07:25:36;12.10;99.90
22185;DHT22;11258;52.516;13.318;2023-03-01T07:28:02;12.70;99.90
22185;DHT22;11258;52.516;13.318;2023-03-01T07:30:28;12.20;99.90
22185;DHT22;11258;52.516;13.318;2023-03-01T07:32:55;12.10;99.90
22185;DHT22;11258;52.516;13.318;2023-03-01T07:35:21;12.10;99.90
22185;DHT22;11258;52.516;13.318;2023-03-01T07:37:47;12.50;99.90
22185;DHT22;11258;52.516;13.318;2023-03-01T07:40:13;12.60;99.90
22185;DHT22;11258;52.516;13.318;2023-03-01T07:42:38;12.90;99.90
22185;DHT22;11258;52.516;13.318;2023-03-01T07:45:05;13.50;99.90
22185;DHT22;11258;52.516;13.318;2023-03-01T07:47:32;13.90;99.90
22185;DHT22;11258;52.516;13.318;2023-03-01T07:49:57;13.40;99.90
22185;DHT22;11258;52.516;13.318;2023-03-01T07:52:23;13.20;99.90
22185;DHT22;11258;52.516;13.318;2023-03-01T07:54:49;12.90;99.90
22185;DHT22;11258;52.516;13.318;2023-03-01T07:57:14;12.80;99.90
22185;DHT22;11258;52.516;13.318;2023-03-01T07:59:40;12.40;99.90
22185;DHT22;11258;52.516;13.318;2023-03-01T08:02:06;12.40;99.90
22185;DHT22;11258;52.516;13.318;2023-03-01T08:04:32;12.90;99.90
22185;DHT22;11258;52.516;13.318;2023-03-01T08:06:58;12.80;99.90
22185;DHT22;11258;52.516;13.318;2023-03-01T08:09:24;13.30;99.90
22185;DHT22;11258;52.516;13.318;2023-03-01T08:11:49;13.70;99.40
22185;DHT22;11258;52.516;13.318;2023-03-01T08:14:15;14.40;97.50
22185;DHT22;11258;52.516;13.318;2023-03-01T08:16:41;14.90;97.00
22185;DHT22;11258;52.516;13.318;2023-03-01T08:19:09;14.90;96.20
22185;DHT22;11258;52.516;13.318;2023-03-01T08:21:35;14.50;95.60
22185;DHT22;11258;52.516;13.318;2023-03-01T08:24:05;14.20;95.00
22185;DHT22;11258;52.516;13.318;2023-03-01T08:26:32;14.30;95.30
22185;DHT22;11258;52.516;13.318;2023-03-01T08:28:59;14.40;94.90
22185;DHT22;11258;52.516;13.318;2023-03-01T08:31:37;14.50;94.40
22185;DHT22;11258;52.516;13.318;2023-03-01T08:34:06;14.70;93.30
22185;DHT22;11258;52.516;13.318;2023-03-01T08:36:36;14.20;93.00
22185;DHT22;11258;52.516;13.318;2023-03-01T08:39:03;13.60;93.20
22185;DHT22;11258;52.516;13.318;2023-03-01T08:41:29;13.90;93.60
22185;DHT22;11258;52.516;13.318;2023-03-01T08:43:55;14.00;93.50
22185;DHT22;11258;52.516;13.318;2023-03-01T08:46:27;13.90;92.90
22185;DHT22;11258;52.516;13.318;2023-03-01T08:48:53;13.70;93.40
22185;DHT22;11258;52.516;13.318;2023-03-01T08:51:20;13.10;93.90
22185;DHT22;11258;52.516;13.318;2023-03-01T08:53:46;12.80;94.60
22185;DHT22;11258;52.516;13.318;2023-03-01T08:56:12;13.10;95.00
22185;DHT22;11258;52.516;13.318;2023-03-01T08:58:38;13.00;94.80
22185;DHT22;11258;52.516;13.318;2023-03-01T09:01:09;13.20;95.20
22185;DHT22;11258;52.516;13.318;2023-03-01T09:03:36;13.10;95.00
22185;DHT22;11258;52.516;13.318;2023-03-01T09:06:03;12.80;95.20
22185;DHT22;11258;52.516;13.318;2023-03-01T09:08:28;12.10;96.30
22185;DHT22;11258;52.516;13.318;2023-03-01T09:10:54;12.00;96.50
22185;DHT22;11258;52.516;13.318;2023-03-01T09:13:20;11.70;96.90
22185;DHT22;11258;52.516;13.318;2023-03-01T09:15:49;11.70;97.30
22185;DHT22;11258;52.516;13.318;2023-03-01T09:18:14;11.70;97.50
22185;DHT22;11258;52.516;13.318;2023-03-01T09:20:40;11.40;97.90
22185;DHT22;11258;52.516;13.318;2023-03-01T09:23:05;11.60;98.70
22185;DHT22;11258;52.516;13.318;2023-03-01T09:25:33;11.60;97.80
22185;DHT22;11258;52.516;13.318;2023-03-01T09:27:59;11.80;97.70
22185;DHT22;11258;52.516;13.318;2023-03-01T09:30:24;11.60;97.20
22185;DHT22;11258;52.516;13.318;2023-03-01T09:32:50;11.90;97.70
22185;DHT22;11258;52.516;13.318;2023-03-01T09:35:16;11.60;97.80
22185;DHT22;11258;52.516;13.318;2023-03-01T09:37:41;11.60;97.80
22185;DHT22;11258;52.516;13.318;2023-03-01T09:40:15;11.80;97.30
22185;DHT22;11258;52.516;13.318;2023-03-01T09:43:07;11.80;96.90
22185;DHT22;11258;52.516;13.318;2023-03-01T09:45:40;11.30;97.80
22185;DHT22;11258;52.516;13.318;2023-03-01T09:48:14;11.20;98.10
22185;DHT22;11258;52.516;13.318;2023-03-01T09:50:43;10.90;98.60
22185;DHT22;11258;52.516;13.318;2023-03-01T09:53:23;11.20;98.90
22185;DHT22;11258;52.516;13.318;2023-03-01T09:56:05;11.40;98.60
22185;DHT22;11258;52.516;13.318;2023-03-01T10:01:59;11.60;97.70
22185;DHT22;11258;52.516;13.318;2023-03-01T10:04:32;11.50;97.20
22185;DHT22;11258;52.516;13.318;2023-03-01T10:10:08;12.00;96.60
22185;DHT22;11258;52.516;13.318;2023-03-01T10:12:40;12.00;95.90
22185;DHT22;11258;52.516;13.318;2023-03-01T10:15:25;12.20;95.50
22185;DHT22;11258;52.516;13.318;2023-03-01T10:18:04;11.90;95.80
22185;DHT22;11258;52.516;13.318;2023-03-01T10:23:08;12.00;96.70
22185;DHT22;11258;52.516;13.318;2023-03-01T10:28:29;11.40;97.30
22185;DHT22;11258;52.516;13.318;2023-03-01T10:30:57;11.20;98.10
22185;DHT22;11258;52.516;13.318;2023-03-01T10:33:30;10.80;97.90
22185;DHT22;11258;52.516;13.318;2023-03-01T10:35:57;10.60;97.90
22185;DHT22;11258;52.516;13.318;2023-03-01T10:38:22;10.20;99.00
22185;DHT22;11258;52.516;13.318;2023-03-01T10:41:04;10.30;99.50
22185;DHT22;11258;52.516;13.318;2023-03-01T10:43:48;10.10;99.90
22185;DHT22;11258;52.516;13.318;2023-03-01T10:46:26;10.70;99.90
22185;DHT22;11258;52.516;13.318;2023-03-01T10:51:33;11.10;99.50
22185;DHT22;11258;52.516;13.318;2023-03-01T10:53:59;11.20;99.40
22185;DHT22;11258;52.516;13.318;2023-03-01T10:56:25;10.90;97.80
22185;DHT22;11258;52.516;13.318;2023-03-01T10:59:02;10.40;98.00
22185;DHT22;11258;52.516;13.318;2023-03-01T11:01:37;10.60;98.60
22185;DHT22;11258;52.516;13.318;2023-03-01T11:04:11;10.60;98.20
22185;DHT22;11258;52.516;13.318;2023-03-01T11:06:38;10.70;98.10
22185;DHT22;11258;52.516;13.318;2023-03-01T11:09:24;11.00;97.20
22185;DHT22;11258;52.516;13.318;2023-03-01T11:11:57;11.10;96.20
22185;DHT22;11258;52.516;13.318;2023-03-01T11:14:25;10.50;95.60
22185;DHT22;11258;52.516;13.318;2023-03-01T11:17:13;10.50;97.00
22185;DHT22;11258;52.516;13.318;2023-03-01T11:19:40;10.70;96.50
22185;DHT22;11258;52.516;13.318;2023-03-01T11:22:14;10.90;96.40
22185;DHT22;11258;52.516;13.318;2023-03-01T11:24:54;10.50;96.00
22185;DHT22;11258;52.516;13.318;2023-03-01T11:27:25;10.50;96.70
22185;DHT22;11258;52.516;13.318;2023-03-01T11:32:44;10.30;96.40
22185;DHT22;11258;52.516;13.318;2023-03-01T11:35:30;10.20;96.50
22185;DHT22;11258;52.516;13.318;2023-03-01T11:40:35;10.30;96.80
22185;DHT22;11258;52.516;13.318;2023-03-01T11:43:23;10.70;96.70
22185;DHT22;11258;52.516;13.318;2023-03-01T11:51:29;10.70;95.00
22185;DHT22;11258;52.516;13.318;2023-03-01T11:56:35;10.80;94.70
22185;DHT22;11258;52.516;13.318;2023-03-01T11:59:07;10.60;94.80
22185;DHT22;11258;52.516;13.318;2023-03-01T12:01:44;10.70;94.90
22185;DHT22;11258;52.516;13.318;2023-03-01T12:04:34;10.70;93.70
22185;DHT22;11258;52.516;13.318;2023-03-01T12:12:51;10.30;92.90
22185;DHT22;11258;52.516;13.318;2023-03-01T12:18:25;10.50;93.60
22185;DHT22;11258;52.516;13.318;2023-03-01T12:37:32;10.50;93.60
22185;DHT22;11258;52.516;13.318;2023-03-01T12:46:21;10.70;91.80
22185;DHT22;11258;52.516;13.318;2023-03-01T12:49:10;10.00;90.60
22185;DHT22;11258;52.516;13.318;2023-03-01T12:51:38;10.00;90.90
22185;DHT22;11258;52.516;13.318;2023-03-01T12:54:14;9.70;91.10
22185;DHT22;11258;52.516;13.318;2023-03-01T12:56:41;9.60;91.60
22185;DHT22;11258;52.516;13.318;2023-03-01T13:05:37;10.30;91.70
22185;DHT22;11258;52.516;13.318;2023-03-01T13:08:21;10.40;90.90
22185;DHT22;11258;52.516;13.318;2023-03-01T13:10:58;10.10;90.30
22185;DHT22;11258;52.516;13.318;2023-03-01T13:13:26;10.00;90.80
22185;DHT22;11258;52.516;13.318;2023-03-01T13:15:53;10.20;90.90
22185;DHT22;11258;52.516;13.318;2023-03-01T13:20:50;10.20;89.30
22185;DHT22;11258;52.516;13.318;2023-03-01T13:26:15;10.20;89.60
22185;DHT22;11258;52.516;13.318;2023-03-01T13:34:00;10.00;88.20
22185;DHT22;11258;52.516;13.318;2023-03-01T13:38:57;9.90;89.10
22185;DHT22;11258;52.516;13.318;2023-03-01T13:44:37;9.90;89.50
22185;DHT22;11258;52.516;13.318;2023-03-01T13:54:50;9.60;90.80
22185;DHT22;11258;52.516;13.318;2023-03-01T13:57:22;9.70;91.10
22185;DHT22;11258;52.516;13.318;2023-03-01T13:59:49;9.60;90.90
22185;DHT22;11258;52.516;13.318;2023-03-01T14:02:15;9.60;91.20
22185;DHT22;11258;52.516;13.318;2023-03-01T14:04:41;9.70;90.60
22185;DHT22;11258;52.516;13.318;2023-03-01T14:07:18;9.70;90.60
22185;DHT22;11258;52.516;13.318;2023-03-01T14:09:47;9.50;90.20
22185;DHT22;11258;52.516;13.318;2023-03-01T14:15:35;9.30;91.10
22185;DHT22;11258;52.516;13.318;2023-03-01T14:20:42;9.40;91.80
22185;DHT22;11258;52.516;13.318;2023-03-01T14:23:13;9.50;92.30
22185;DHT22;11258;52.516;13.318;2023-03-01T14:25:56;9.60;92.30
22185;DHT22;11258;52.516;13.318;2023-03-01T14:28:30;9.70;92.90
22185;DHT22;11258;52.516;13.318;2023-03-01T14:31:00;9.70;92.80
22185;DHT22;11258;52.516;13.318;2023-03-01T14:33:35;9.70;92.80
22185;DHT22;11258;52.516;13.318;2023-03-01T14:36:09;9.70;93.00
22185;DHT22;11258;52.516;13.318;2023-03-01T14:38:39;9.60;92.70
22185;DHT22;11258;52.516;13.318;2023-03-01T14:41:11;9.40;92.70
22185;DHT22;11258;52.516;13.318;2023-03-01T14:43:41;9.30;92.90
22185;DHT22;11258;52.516;13.318;2023-03-01T14:46:21;9.20;93.50
22185;DHT22;11258;52.516;13.318;2023-03-01T14:48:57;9.20;93.50
22185;DHT22;11258;52.516;13.318;2023-03-01T14:51:24;9.30;93.70
22185;DHT22;11258;52.516;13.318;2023-03-01T14:53:50;9.30;94.00
22185;DHT22;11258;52.516;13.318;2023-03-01T14:56:16;9.30;94.00
22185;DHT22;11258;52.516;13.318;2023-03-01T14:58:46;9.30;95.00
22185;DHT22;11258;52.516;13.318;2023-03-01T15:01:16;9.30;95.80
22185;DHT22;11258;52.516;13.318;2023-03-01T15:03:48;9.40;96.10
22185;DHT22;11258;52.516;13.318;2023-03-01T15:06:19;9.30;96.60
22185;DHT22;11258;52.516;13.318;2023-03-01T15:08:51;9.30;96.40
22185;DHT22;11258;52.516;13.318;2023-03-01T15:11:24;9.30;96.70
22185;DHT22;11258;52.516;13.318;2023-03-01T15:13:52;9.20;96.50
22185;DHT22;11258;52.516;13.318;2023-03-01T15:16:26;9.30;96.40
22185;DHT22;11258;52.516;13.318;2023-03-01T15:18:55;9.20;96.30
22185;DHT22;11258;52.516;13.318;2023-03-01T15:21:23;9.30;96.90
22185;DHT22;11258;52.516;13.318;2023-03-01T15:23:55;9.30;96.70
22185;DHT22;11258;52.516;13.318;2023-03-01T15:26:29;9.30;97.30
22185;DHT22;11258;52.516;13.318;2023-03-01T15:28:57;9.30;98.00
22185;DHT22;11258;52.516;13.318;2023-03-01T15:31:27;9.20;97.00
22185;DHT22;11258;52.516;13.318;2023-03-01T15:34:21;9.20;97.10
22185;DHT22;11258;52.516;13.318;2023-03-01T15:36:48;9.10;97.40
22185;DHT22;11258;52.516;13.318;2023-03-01T15:42:03;9.20;97.40
22185;DHT22;11258;52.516;13.318;2023-03-01T15:44:33;9.10;97.40
22185;DHT22;11258;52.516;13.318;2023-03-01T15:46:59;9.10;97.80
22185;DHT22;11258;52.516;13.318;2023-03-01T15:49:41;9.10;97.50
22185;DHT22;11258;52.516;13.318;2023-03-01T15:52:17;9.00;97.60
22185;DHT22;11258;52.516;13.318;2023-03-01T15:54:44;8.90;97.90
22185;DHT22;11258;52.516;13.318;2023-03-01T15:57:14;8.90;97.80
22185;DHT22;11258;52.516;13.318;2023-03-01T15:59:40;8.90;98.20
22185;DHT22;11258;52.516;13.318;2023-03-01T16:02:11;8.90;98.30
22185;DHT22;11258;52.516;13.318;2023-03-01T16:04:38;8.80;99.00
22185;DHT22;11258;52.516;13.318;2023-03-01T16:07:04;8.80;98.70
22185;DHT22;11258;52.516;13.318;2023-03-01T16:09:29;8.70;98.60
22185;DHT22;11258;52.516;13.318;2023-03-01T16:11:55;8.70;98.90
22185;DHT22;11258;52.516;13.318;2023-03-01T16:14:21;8.60;98.70
22185;DHT22;11258;52.516;13.318;2023-03-01T16:16:47;8.60;98.80
22185;DHT22;11258;52.516;13.318;2023-03-01T16:19:13;8.60;99.60
22185;DHT22;11258;52.516;13.318;2023-03-01T16:21:40;8.60;99.20
22185;DHT22;11258;52.516;13.318;2023-03-01T16:24:06;8.50;98.60
22185;DHT22;11258;52.516;13.318;2023-03-01T16:26:32;8.50;99.00
22185;DHT22;11258;52.516;13.318;2023-03-01T16:28:58;8.40;99.00
22185;DHT22;11258;52.516;13.318;2023-03-01T16:31:24;8.40;99.90
22185;DHT22;11258;52.516;13.318;2023-03-01T16:33:57;8.30;99.50
22185;DHT22;11258;52.516;13.318;2023-03-01T16:36:24;8.20;99.90
22185;DHT22;11258;52.516;13.318;2023-03-01T16:38:54;8.20;99.90
22185;DHT22;11258;52.516;13.318;2023-03-01T16:41:22;8.20;99.90
22185;DHT22;11258;52.516;13.318;2023-03-01T16:43:48;8.10;99.90
22185;DHT22;11258;52.516;13.318;2023-03-01T16:46:17;8.20;99.90
22185;DHT22;11258;52.516;13.318;2023-03-01T16:48:44;8.10;99.90
22185;DHT22;11258;52.516;13.318;2023-03-01T16:51:10;8.00;99.90
22185;DHT22;11258;52.516;13.318;2023-03-01T16:53:38;8.00;99.90
22185;DHT22;11258;52.516;13.318;2023-03-01T16:56:06;8.00;99.90
22185;DHT22;11258;52.516;13.318;2023-03-01T16:58:31;7.90;99.90
22185;DHT22;11258;52.516;13.318;2023-03-01T17:01:13;7.90;99.90
22185;DHT22;11258;52.516;13.318;2023-03-01T17:03:39;7.90;99.90
22185;DHT22;11258;52.516;13.318;2023-03-01T17:06:10;7.80;99.90
22185;DHT22;11258;52.516;13.318;2023-03-01T17:08:37;7.80;99.90
22185;DHT22;11258;52.516;13.318;2023-03-01T17:11:08;7.80;99.90
22185;DHT22;11258;52.516;13.318;2023-03-01T17:13:34;7.70;99.90
22185;DHT22;11258;52.516;13.318;2023-03-01T17:16:02;7.70;99.90
22185;DHT22;11258;52.516;13.318;2023-03-01T17:18:28;7.70;99.90
22185;DHT22;11258;52.516;13.318;2023-03-01T17:20:54;7.60;99.90
22185;DHT22;11258;52.516;13.318;2023-03-01T17:23:19;7.60;99.90
22185;DHT22;11258;52.516;13.318;2023-03-01T17:25:45;7.60;99.90
22185;DHT22;11258;52.516;13.318;2023-03-01T17:28:12;7.60;99.90
22185;DHT22;11258;52.516;13.318;2023-03-01T17:30:41;7.50;99.90
22185;DHT22;11258;52.516;13.318;2023-03-01T17:33:08;7.50;99.90